sensor_id;sensor_type;location;lat;lon;timestamp;P1;durP1;ratioP1;P2;durP2;ratioP2
39890;SDS011;25564;53.312;9.790;2022-09-09T00:01:59;52.13;;;17.07;;
39890;SDS011;25564;53.312;9.790;2022-09-09T00:10:28;40.93;;;13.60;;
39890;SDS011;25564;53.312;9.790;2022-09-09T00:18:22;33.50;;;13.80;;
39890;SDS011;25564;53.312;9.790;2022-09-09T00:21:05;34.43;;;13.10;;
39890;SDS011;25564;53.312;9.790;2022-09-09T00:23:53;29.77;;;13.30;;
39890;SDS011;25564;53.312;9.790;2022-09-09T00:29:05;27.13;;;13.23;;
39890;SDS011;25564;53.312;9.790;2022-09-09T00:31:43;33.10;;;13.27;;
39890;SDS011;25564;53.312;9.790;2022-09-09T00:34:15;27.63;;;11.80;;
39890;SDS011;25564;53.312;9.790;2022-09-09T00:36:51;28.87;;;12.93;;
39890;SDS011;25564;53.312;9.790;2022-09-09T00:42:12;36.03;;;12.27;;
39890;SDS011;25564;53.312;9.790;2022-09-09T00:48:11;32.43;;;12.37;;
39890;SDS011;25564;53.312;9.790;2022-09-09T00:50:50;30.63;;;12.23;;
39890;SDS011;25564;53.312;9.790;2022-09-09T00:53:39;25.40;;;11.53;;
39890;SDS011;25564;53.312;9.790;2022-09-09T00:56:40;35.70;;;13.17;;
39890;SDS011;25564;53.312;9.790;2022-09-09T00:59:42;28.33;;;11.43;;
39890;SDS011;25564;53.312;9.790;2022-09-09T01:02:28;40.23;;;13.87;;
39890;SDS011;25564;53.312;9.790;2022-09-09T01:05:22;31.43;;;13.87;;
39890;SDS011;25564;53.312;9.790;2022-09-09T01:08:02;35.77;;;12.70;;
39890;SDS011;25564;53.312;9.790;2022-09-09T01:10:52;35.78;;;12.35;;
39890;SDS011;25564;53.312;9.790;2022-09-09T01:13:27;33.77;;;12.57;;
39890;SDS011;25564;53.312;9.790;2022-09-09T01:16:04;32.07;;;13.20;;
39890;SDS011;25564;53.312;9.790;2022-09-09T01:18:46;38.43;;;13.93;;
39890;SDS011;25564;53.312;9.790;2022-09-09T01:26:40;39.87;;;13.00;;
39890;SDS011;25564;53.312;9.790;2022-09-09T01:29:14;32.57;;;14.17;;
39890;SDS011;25564;53.312;9.790;2022-09-09T01:31:52;32.53;;;12.63;;
39890;SDS011;25564;53.312;9.790;2022-09-09T01:34:25;30.55;;;13.27;;
39890;SDS011;25564;53.312;9.790;2022-09-09T01:37:03;44.30;;;13.73;;
39890;SDS011;25564;53.312;9.790;2022-09-09T01:39:38;37.45;;;14.60;;
39890;SDS011;25564;53.312;9.790;2022-09-09T01:42:14;35.28;;;13.35;;
39890;SDS011;25564;53.312;9.790;2022-09-09T01:44:47;35.93;;;14.23;;
39890;SDS011;25564;53.312;9.790;2022-09-09T01:47:18;39.27;;;14.20;;
39890;SDS011;25564;53.312;9.790;2022-09-09T01:49:50;33.17;;;14.80;;
39890;SDS011;25564;53.312;9.790;2022-09-09T01:52:21;47.33;;;15.50;;
39890;SDS011;25564;53.312;9.790;2022-09-09T01:54:53;38.13;;;14.70;;
39890;SDS011;25564;53.312;9.790;2022-09-09T01:57:25;38.80;;;15.97;;
39890;SDS011;25564;53.312;9.790;2022-09-09T02:00:05;32.43;;;13.80;;
39890;SDS011;25564;53.312;9.790;2022-09-09T02:02:44;40.83;;;14.77;;
39890;SDS011;25564;53.312;9.790;2022-09-09T02:05:37;39.07;;;14.30;;
39890;SDS011;25564;53.312;9.790;2022-09-09T02:08:17;42.33;;;15.93;;
39890;SDS011;25564;53.312;9.790;2022-09-09T02:11:03;41.70;;;15.30;;
39890;SDS011;25564;53.312;9.790;2022-09-09T02:13:39;40.73;;;14.17;;
39890;SDS011;25564;53.312;9.790;2022-09-09T02:16:23;33.90;;;14.37;;
39890;SDS011;25564;53.312;9.790;2022-09-09T02:19:14;43.07;;;15.47;;
39890;SDS011;25564;53.312;9.790;2022-09-09T02:21:56;34.75;;;13.25;;
39890;SDS011;25564;53.312;9.790;2022-09-09T02:24:32;39.17;;;13.77;;
39890;SDS011;25564;53.312;9.790;2022-09-09T02:27:06;37.58;;;14.25;;
39890;SDS011;25564;53.312;9.790;2022-09-09T02:29:41;34.93;;;14.33;;
39890;SDS011;25564;53.312;9.790;2022-09-09T02:32:14;36.70;;;14.73;;
39890;SDS011;25564;53.312;9.790;2022-09-09T02:34:51;33.27;;;12.00;;
39890;SDS011;25564;53.312;9.790;2022-09-09T02:37:28;30.47;;;12.63;;
39890;SDS011;25564;53.312;9.790;2022-09-09T02:40:07;27.77;;;11.77;;
39890;SDS011;25564;53.312;9.790;2022-09-09T02:42:42;24.27;;;11.73;;
39890;SDS011;25564;53.312;9.790;2022-09-09T02:45:17;34.40;;;13.40;;
39890;SDS011;25564;53.312;9.790;2022-09-09T02:48:00;26.97;;;12.07;;
39890;SDS011;25564;53.312;9.790;2022-09-09T02:50:39;35.53;;;13.73;;
39890;SDS011;25564;53.312;9.790;2022-09-09T02:53:23;37.63;;;13.97;;
39890;SDS011;25564;53.312;9.790;2022-09-09T02:56:05;27.70;;;12.23;;
39890;SDS011;25564;53.312;9.790;2022-09-09T02:58:45;32.57;;;13.20;;
39890;SDS011;25564;53.312;9.790;2022-09-09T03:01:17;45.37;;;13.53;;
39890;SDS011;25564;53.312;9.790;2022-09-09T03:03:48;35.97;;;13.53;;
39890;SDS011;25564;53.312;9.790;2022-09-09T03:06:20;35.43;;;11.90;;
39890;SDS011;25564;53.312;9.790;2022-09-09T03:08:53;30.77;;;13.30;;
39890;SDS011;25564;53.312;9.790;2022-09-09T03:11:25;34.43;;;12.23;;
39890;SDS011;25564;53.312;9.790;2022-09-09T03:13:58;37.80;;;13.60;;
39890;SDS011;25564;53.312;9.790;2022-09-09T03:16:30;29.07;;;11.90;;
39890;SDS011;25564;53.312;9.790;2022-09-09T03:19:01;31.00;;;12.33;;
39890;SDS011;25564;53.312;9.790;2022-09-09T03:21:33;24.47;;;11.50;;
39890;SDS011;25564;53.312;9.790;2022-09-09T03:24:04;29.10;;;12.20;;
39890;SDS011;25564;53.312;9.790;2022-09-09T03:26:37;26.97;;;10.97;;
39890;SDS011;25564;53.312;9.790;2022-09-09T03:29:09;29.80;;;12.10;;
39890;SDS011;25564;53.312;9.790;2022-09-09T03:31:40;26.17;;;10.80;;
39890;SDS011;25564;53.312;9.790;2022-09-09T03:34:12;28.53;;;11.53;;
39890;SDS011;25564;53.312;9.790;2022-09-09T03:36:57;27.43;;;10.70;;
39890;SDS011;25564;53.312;9.790;2022-09-09T03:39:29;19.70;;;10.40;;
39890;SDS011;25564;53.312;9.790;2022-09-09T03:42:01;25.30;;;11.20;;
39890;SDS011;25564;53.312;9.790;2022-09-09T03:44:35;21.97;;;9.47;;
39890;SDS011;25564;53.312;9.790;2022-09-09T03:47:06;19.73;;;9.43;;
39890;SDS011;25564;53.312;9.790;2022-09-09T03:49:38;19.07;;;9.83;;
39890;SDS011;25564;53.312;9.790;2022-09-09T03:52:09;24.33;;;9.70;;
39890;SDS011;25564;53.312;9.790;2022-09-09T03:54:41;20.17;;;9.33;;
39890;SDS011;25564;53.312;9.790;2022-09-09T03:57:13;24.83;;;10.77;;
39890;SDS011;25564;53.312;9.790;2022-09-09T03:59:47;27.63;;;9.90;;
39890;SDS011;25564;53.312;9.790;2022-09-09T04:02:19;21.17;;;9.77;;
39890;SDS011;25564;53.312;9.790;2022-09-09T04:04:50;18.63;;;8.83;;
39890;SDS011;25564;53.312;9.790;2022-09-09T04:07:21;22.27;;;9.43;;
39890;SDS011;25564;53.312;9.790;2022-09-09T04:09:53;16.47;;;7.57;;
39890;SDS011;25564;53.312;9.790;2022-09-09T04:12:25;15.83;;;8.20;;
39890;SDS011;25564;53.312;9.790;2022-09-09T04:14:57;21.00;;;8.10;;
39890;SDS011;25564;53.312;9.790;2022-09-09T04:17:28;19.63;;;8.77;;
39890;SDS011;25564;53.312;9.790;2022-09-09T04:20:00;12.40;;;6.83;;
39890;SDS011;25564;53.312;9.790;2022-09-09T04:22:32;15.00;;;7.27;;
39890;SDS011;25564;53.312;9.790;2022-09-09T04:25:05;17.93;;;8.07;;
39890;SDS011;25564;53.312;9.790;2022-09-09T04:27:37;17.73;;;8.07;;
39890;SDS011;25564;53.312;9.790;2022-09-09T04:30:08;15.83;;;7.77;;
39890;SDS011;25564;53.312;9.790;2022-09-09T04:32:41;18.33;;;7.57;;
39890;SDS011;25564;53.312;9.790;2022-09-09T04:35:12;20.87;;;8.33;;
39890;SDS011;25564;53.312;9.790;2022-09-09T04:37:44;16.90;;;8.13;;
39890;SDS011;25564;53.312;9.790;2022-09-09T04:40:16;18.33;;;7.47;;
39890;SDS011;25564;53.312;9.790;2022-09-09T04:42:47;14.93;;;7.20;;
39890;SDS011;25564;53.312;9.790;2022-09-09T04:45:19;14.63;;;6.87;;
39890;SDS011;25564;53.312;9.790;2022-09-09T04:47:51;16.20;;;7.37;;
39890;SDS011;25564;53.312;9.790;2022-09-09T04:50:22;13.63;;;6.83;;
39890;SDS011;25564;53.312;9.790;2022-09-09T04:52:54;16.97;;;7.47;;
39890;SDS011;25564;53.312;9.790;2022-09-09T04:55:25;13.93;;;7.17;;
39890;SDS011;25564;53.312;9.790;2022-09-09T04:57:57;12.63;;;6.40;;
39890;SDS011;25564;53.312;9.790;2022-09-09T05:00:28;16.27;;;7.40;;
39890;SDS011;25564;53.312;9.790;2022-09-09T05:03:02;14.90;;;6.70;;
39890;SDS011;25564;53.312;9.790;2022-09-09T05:05:35;12.97;;;6.63;;
39890;SDS011;25564;53.312;9.790;2022-09-09T05:08:07;15.53;;;6.60;;
39890;SDS011;25564;53.312;9.790;2022-09-09T05:10:40;13.03;;;6.60;;
39890;SDS011;25564;53.312;9.790;2022-09-09T05:13:12;15.77;;;6.57;;
39890;SDS011;25564;53.312;9.790;2022-09-09T05:15:51;11.07;;;5.97;;
39890;SDS011;25564;53.312;9.790;2022-09-09T05:18:24;11.63;;;5.73;;
39890;SDS011;25564;53.312;9.790;2022-09-09T05:20:59;14.10;;;6.60;;
39890;SDS011;25564;53.312;9.790;2022-09-09T05:23:31;15.48;;;6.45;;
39890;SDS011;25564;53.312;9.790;2022-09-09T05:26:05;15.13;;;6.83;;
39890;SDS011;25564;53.312;9.790;2022-09-09T05:28:37;11.83;;;5.60;;
39890;SDS011;25564;53.312;9.790;2022-09-09T05:31:10;14.27;;;7.03;;
39890;SDS011;25564;53.312;9.790;2022-09-09T05:33:44;14.18;;;6.13;;
39890;SDS011;25564;53.312;9.790;2022-09-09T05:36:18;13.90;;;6.87;;
39890;SDS011;25564;53.312;9.790;2022-09-09T05:38:51;14.13;;;6.80;;
39890;SDS011;25564;53.312;9.790;2022-09-09T05:41:24;10.53;;;5.40;;
39890;SDS011;25564;53.312;9.790;2022-09-09T05:43:56;10.90;;;5.80;;
39890;SDS011;25564;53.312;9.790;2022-09-09T05:46:29;13.70;;;6.00;;
39890;SDS011;25564;53.312;9.790;2022-09-09T05:49:02;14.23;;;5.73;;
39890;SDS011;25564;53.312;9.790;2022-09-09T05:51:35;8.90;;;5.47;;
39890;SDS011;25564;53.312;9.790;2022-09-09T05:54:06;11.60;;;5.67;;
39890;SDS011;25564;53.312;9.790;2022-09-09T05:56:37;9.63;;;5.10;;
39890;SDS011;25564;53.312;9.790;2022-09-09T05:59:09;11.50;;;5.30;;
39890;SDS011;25564;53.312;9.790;2022-09-09T06:01:40;13.43;;;5.23;;
39890;SDS011;25564;53.312;9.790;2022-09-09T06:04:12;12.43;;;5.40;;
39890;SDS011;25564;53.312;9.790;2022-09-09T06:06:43;8.20;;;4.93;;
39890;SDS011;25564;53.312;9.790;2022-09-09T06:09:15;9.13;;;4.97;;
39890;SDS011;25564;53.312;9.790;2022-09-09T06:11:46;10.70;;;4.63;;
39890;SDS011;25564;53.312;9.790;2022-09-09T06:14:17;9.53;;;4.87;;
39890;SDS011;25564;53.312;9.790;2022-09-09T06:16:49;9.07;;;4.63;;
39890;SDS011;25564;53.312;9.790;2022-09-09T06:19:20;8.93;;;5.03;;
39890;SDS011;25564;53.312;9.790;2022-09-09T06:21:51;16.70;;;5.17;;
39890;SDS011;25564;53.312;9.790;2022-09-09T06:24:23;7.90;;;4.30;;
39890;SDS011;25564;53.312;9.790;2022-09-09T06:26:54;10.40;;;4.83;;
39890;SDS011;25564;53.312;9.790;2022-09-09T06:29:26;6.80;;;4.27;;
39890;SDS011;25564;53.312;9.790;2022-09-09T06:31:58;8.37;;;4.23;;
39890;SDS011;25564;53.312;9.790;2022-09-09T06:34:30;9.03;;;4.77;;
39890;SDS011;25564;53.312;9.790;2022-09-09T06:37:01;8.80;;;4.40;;
39890;SDS011;25564;53.312;9.790;2022-09-09T06:39:33;8.67;;;4.70;;
39890;SDS011;25564;53.312;9.790;2022-09-09T06:42:04;11.20;;;4.30;;
39890;SDS011;25564;53.312;9.790;2022-09-09T06:44:36;12.10;;;4.27;;
39890;SDS011;25564;53.312;9.790;2022-09-09T06:47:07;11.80;;;4.40;;
39890;SDS011;25564;53.312;9.790;2022-09-09T06:49:39;10.03;;;3.80;;
39890;SDS011;25564;53.312;9.790;2022-09-09T06:52:10;7.07;;;3.83;;
39890;SDS011;25564;53.312;9.790;2022-09-09T06:54:41;7.27;;;4.27;;
39890;SDS011;25564;53.312;9.790;2022-09-09T06:57:13;10.27;;;4.17;;
39890;SDS011;25564;53.312;9.790;2022-09-09T07:00:04;10.37;;;3.83;;
39890;SDS011;25564;53.312;9.790;2022-09-09T07:02:36;6.50;;;3.50;;
39890;SDS011;25564;53.312;9.790;2022-09-09T07:05:10;6.10;;;3.57;;
39890;SDS011;25564;53.312;9.790;2022-09-09T07:07:42;5.83;;;3.60;;
39890;SDS011;25564;53.312;9.790;2022-09-09T07:10:14;5.53;;;3.10;;
39890;SDS011;25564;53.312;9.790;2022-09-09T07:12:49;9.47;;;4.27;;
39890;SDS011;25564;53.312;9.790;2022-09-09T07:15:22;8.07;;;3.57;;
39890;SDS011;25564;53.312;9.790;2022-09-09T07:17:54;6.80;;;3.50;;
39890;SDS011;25564;53.312;9.790;2022-09-09T07:20:25;4.33;;;3.07;;
39890;SDS011;25564;53.312;9.790;2022-09-09T07:22:57;8.90;;;3.67;;
39890;SDS011;25564;53.312;9.790;2022-09-09T07:25:29;6.03;;;3.23;;
39890;SDS011;25564;53.312;9.790;2022-09-09T07:28:01;7.23;;;3.40;;
39890;SDS011;25564;53.312;9.790;2022-09-09T07:30:33;8.52;;;3.42;;
39890;SDS011;25564;53.312;9.790;2022-09-09T07:33:04;6.63;;;3.10;;
39890;SDS011;25564;53.312;9.790;2022-09-09T07:35:36;9.82;;;3.53;;
39890;SDS011;25564;53.312;9.790;2022-09-09T07:38:08;5.38;;;3.20;;
39890;SDS011;25564;53.312;9.790;2022-09-09T07:40:40;7.35;;;4.18;;
39890;SDS011;25564;53.312;9.790;2022-09-09T07:43:12;4.85;;;3.00;;
39890;SDS011;25564;53.312;9.790;2022-09-09T07:45:47;6.82;;;3.35;;
39890;SDS011;25564;53.312;9.790;2022-09-09T07:48:21;5.40;;;3.20;;
39890;SDS011;25564;53.312;9.790;2022-09-09T07:50:52;6.85;;;2.97;;
39890;SDS011;25564;53.312;9.790;2022-09-09T07:53:23;4.95;;;3.05;;
39890;SDS011;25564;53.312;9.790;2022-09-09T07:55:55;6.35;;;2.70;;
39890;SDS011;25564;53.312;9.790;2022-09-09T07:58:26;6.32;;;3.08;;
39890;SDS011;25564;53.312;9.790;2022-09-09T08:00:58;5.70;;;2.67;;
39890;SDS011;25564;53.312;9.790;2022-09-09T08:03:29;6.32;;;2.60;;
39890;SDS011;25564;53.312;9.790;2022-09-09T08:06:04;5.43;;;2.60;;
39890;SDS011;25564;53.312;9.790;2022-09-09T08:08:39;3.83;;;2.28;;
39890;SDS011;25564;53.312;9.790;2022-09-09T08:11:12;3.78;;;2.13;;
39890;SDS011;25564;53.312;9.790;2022-09-09T08:13:48;4.05;;;2.70;;
39890;SDS011;25564;53.312;9.790;2022-09-09T08:16:26;3.78;;;2.30;;
39890;SDS011;25564;53.312;9.790;2022-09-09T08:18:59;5.70;;;2.10;;
39890;SDS011;25564;53.312;9.790;2022-09-09T08:21:31;3.00;;;2.08;;
39890;SDS011;25564;53.312;9.790;2022-09-09T08:24:04;4.97;;;1.92;;
39890;SDS011;25564;53.312;9.790;2022-09-09T08:26:39;3.97;;;2.30;;
39890;SDS011;25564;53.312;9.790;2022-09-09T08:29:13;4.65;;;2.03;;
39890;SDS011;25564;53.312;9.790;2022-09-09T08:31:46;5.22;;;1.80;;
39890;SDS011;25564;53.312;9.790;2022-09-09T08:34:18;4.80;;;2.70;;
39890;SDS011;25564;53.312;9.790;2022-09-09T08:36:51;4.30;;;1.90;;
39890;SDS011;25564;53.312;9.790;2022-09-09T08:39:22;6.03;;;1.83;;
39890;SDS011;25564;53.312;9.790;2022-09-09T08:50:26;8.02;;;2.00;;
39890;SDS011;25564;53.312;9.790;2022-09-09T08:53:05;5.00;;;1.83;;
39890;SDS011;25564;53.312;9.790;2022-09-09T08:55:47;5.47;;;2.13;;
39890;SDS011;25564;53.312;9.790;2022-09-09T08:58:21;4.10;;;1.77;;
39890;SDS011;25564;53.312;9.790;2022-09-09T09:01:02;4.68;;;1.83;;
39890;SDS011;25564;53.312;9.790;2022-09-09T09:12:01;3.90;;;2.20;;
39890;SDS011;25564;53.312;9.790;2022-09-09T09:14:40;3.17;;;1.75;;
39890;SDS011;25564;53.312;9.790;2022-09-09T09:17:19;2.93;;;1.63;;
39890;SDS011;25564;53.312;9.790;2022-09-09T09:19:53;5.00;;;2.10;;
39890;SDS011;25564;53.312;9.790;2022-09-09T09:25:23;4.65;;;2.17;;
39890;SDS011;25564;53.312;9.790;2022-09-09T09:28:03;3.40;;;1.17;;
39890;SDS011;25564;53.312;9.790;2022-09-09T09:31:01;2.67;;;1.60;;
39890;SDS011;25564;53.312;9.790;2022-09-09T09:33:47;4.65;;;2.50;;
39890;SDS011;25564;53.312;9.790;2022-09-09T09:36:23;2.38;;;1.30;;
39890;SDS011;25564;53.312;9.790;2022-09-09T09:39:03;4.40;;;1.55;;
39890;SDS011;25564;53.312;9.790;2022-09-09T09:41:56;3.45;;;1.48;;
39890;SDS011;25564;53.312;9.790;2022-09-09T09:44:36;2.47;;;1.27;;
39890;SDS011;25564;53.312;9.790;2022-09-09T09:47:10;4.97;;;1.35;;
39890;SDS011;25564;53.312;9.790;2022-09-09T09:49:53;5.30;;;1.55;;
39890;SDS011;25564;53.312;9.790;2022-09-09T09:52:30;5.45;;;1.80;;
39890;SDS011;25564;53.312;9.790;2022-09-09T09:55:03;3.28;;;1.00;;
39890;SDS011;25564;53.312;9.790;2022-09-09T09:57:38;2.60;;;1.40;;
39890;SDS011;25564;53.312;9.790;2022-09-09T10:00:17;3.03;;;1.55;;
39890;SDS011;25564;53.312;9.790;2022-09-09T10:02:51;5.88;;;1.42;;
39890;SDS011;25564;53.312;9.790;2022-09-09T10:05:25;2.70;;;1.45;;
39890;SDS011;25564;53.312;9.790;2022-09-09T10:08:10;3.58;;;1.90;;
39890;SDS011;25564;53.312;9.790;2022-09-09T10:16:36;2.40;;;1.40;;
39890;SDS011;25564;53.312;9.790;2022-09-09T10:19:37;2.63;;;1.30;;
39890;SDS011;25564;53.312;9.790;2022-09-09T10:22:24;2.15;;;1.23;;
39890;SDS011;25564;53.312;9.790;2022-09-09T10:25:04;6.43;;;1.60;;
39890;SDS011;25564;53.312;9.790;2022-09-09T10:27:54;4.15;;;1.15;;
39890;SDS011;25564;53.312;9.790;2022-09-09T10:33:49;1.98;;;0.98;;
39890;SDS011;25564;53.312;9.790;2022-09-09T10:36:25;4.40;;;0.80;;
39890;SDS011;25564;53.312;9.790;2022-09-09T10:39:04;7.60;;;1.05;;
39890;SDS011;25564;53.312;9.790;2022-09-09T10:42:01;6.00;;;1.20;;
39890;SDS011;25564;53.312;9.790;2022-09-09T10:44:49;2.15;;;1.17;;
39890;SDS011;25564;53.312;9.790;2022-09-09T10:50:29;3.10;;;1.00;;
39890;SDS011;25564;53.312;9.790;2022-09-09T10:53:45;3.42;;;1.05;;
39890;SDS011;25564;53.312;9.790;2022-09-09T10:56:36;2.40;;;0.90;;
39890;SDS011;25564;53.312;9.790;2022-09-09T10:59:11;3.20;;;1.00;;
39890;SDS011;25564;53.312;9.790;2022-09-09T11:01:57;2.97;;;1.02;;
39890;SDS011;25564;53.312;9.790;2022-09-09T11:04:35;3.25;;;1.27;;
39890;SDS011;25564;53.312;9.790;2022-09-09T11:07:14;2.03;;;0.90;;
39890;SDS011;25564;53.312;9.790;2022-09-09T11:10:01;2.85;;;0.80;;
39890;SDS011;25564;53.312;9.790;2022-09-09T11:12:37;5.13;;;1.17;;
39890;SDS011;25564;53.312;9.790;2022-09-09T11:15:17;5.60;;;1.67;;
39890;SDS011;25564;53.312;9.790;2022-09-09T11:17:55;3.00;;;1.13;;
39890;SDS011;25564;53.312;9.790;2022-09-09T11:20:29;3.70;;;0.93;;
39890;SDS011;25564;53.312;9.790;2022-09-09T11:23:04;5.03;;;1.45;;
39890;SDS011;25564;53.312;9.790;2022-09-09T11:25:44;2.75;;;0.90;;
39890;SDS011;25564;53.312;9.790;2022-09-09T11:31:38;1.92;;;0.90;;
39890;SDS011;25564;53.312;9.790;2022-09-09T11:34:22;3.85;;;1.30;;
39890;SDS011;25564;53.312;9.790;2022-09-09T11:37:06;4.38;;;1.13;;
39890;SDS011;25564;53.312;9.790;2022-09-09T11:42:39;3.20;;;0.90;;
39890;SDS011;25564;53.312;9.790;2022-09-09T11:47:57;4.75;;;1.15;;
39890;SDS011;25564;53.312;9.790;2022-09-09T11:50:36;4.60;;;0.88;;
39890;SDS011;25564;53.312;9.790;2022-09-09T11:53:18;3.80;;;1.02;;
39890;SDS011;25564;53.312;9.790;2022-09-09T11:56:03;3.70;;;1.20;;
39890;SDS011;25564;53.312;9.790;2022-09-09T11:58:53;4.35;;;0.95;;
39890;SDS011;25564;53.312;9.790;2022-09-09T12:01:28;4.80;;;1.17;;
39890;SDS011;25564;53.312;9.790;2022-09-09T12:06:43;2.35;;;1.10;;
39890;SDS011;25564;53.312;9.790;2022-09-09T12:15:17;1.92;;;1.15;;
39890;SDS011;25564;53.312;9.790;2022-09-09T12:17:52;2.92;;;1.00;;
39890;SDS011;25564;53.312;9.790;2022-09-09T12:26:01;4.60;;;1.48;;
39890;SDS011;25564;53.312;9.790;2022-09-09T12:28:42;3.38;;;1.40;;
39890;SDS011;25564;53.312;9.790;2022-09-09T12:31:39;4.70;;;1.70;;
39890;SDS011;25564;53.312;9.790;2022-09-09T12:34:24;3.13;;;1.63;;
39890;SDS011;25564;53.312;9.790;2022-09-09T12:37:18;4.53;;;1.88;;
39890;SDS011;25564;53.312;9.790;2022-09-09T12:39:59;4.38;;;1.60;;
39890;SDS011;25564;53.312;9.790;2022-09-09T12:42:33;10.90;;;2.08;;
39890;SDS011;25564;53.312;9.790;2022-09-09T12:45:29;5.25;;;1.85;;
39890;SDS011;25564;53.312;9.790;2022-09-09T12:48:04;7.10;;;2.10;;
39890;SDS011;25564;53.312;9.790;2022-09-09T12:53:22;2.90;;;2.08;;
39890;SDS011;25564;53.312;9.790;2022-09-09T12:56:04;2.58;;;1.50;;
39890;SDS011;25564;53.312;9.790;2022-09-09T12:58:44;3.88;;;1.65;;
39890;SDS011;25564;53.312;9.790;2022-09-09T13:01:22;4.60;;;1.92;;
39890;SDS011;25564;53.312;9.790;2022-09-09T13:03:55;5.93;;;1.75;;
39890;SDS011;25564;53.312;9.790;2022-09-09T13:06:28;2.65;;;1.90;;
39890;SDS011;25564;53.312;9.790;2022-09-09T13:09:01;2.90;;;1.73;;
39890;SDS011;25564;53.312;9.790;2022-09-09T13:11:35;3.85;;;1.70;;
39890;SDS011;25564;53.312;9.790;2022-09-09T13:14:30;4.22;;;1.60;;
39890;SDS011;25564;53.312;9.790;2022-09-09T13:17:06;3.88;;;1.50;;
39890;SDS011;25564;53.312;9.790;2022-09-09T13:19:48;3.08;;;1.50;;
39890;SDS011;25564;53.312;9.790;2022-09-09T13:22:36;3.35;;;1.60;;
39890;SDS011;25564;53.312;9.790;2022-09-09T13:27:41;4.00;;;1.55;;
39890;SDS011;25564;53.312;9.790;2022-09-09T13:35:56;3.00;;;1.20;;
39890;SDS011;25564;53.312;9.790;2022-09-09T13:38:52;2.90;;;1.20;;
39890;SDS011;25564;53.312;9.790;2022-09-09T13:41:29;6.78;;;1.45;;
39890;SDS011;25564;53.312;9.790;2022-09-09T13:44:03;3.67;;;1.50;;
39890;SDS011;25564;53.312;9.790;2022-09-09T13:46:38;3.10;;;1.15;;
39890;SDS011;25564;53.312;9.790;2022-09-09T13:51:43;3.78;;;1.58;;
39890;SDS011;25564;53.312;9.790;2022-09-09T13:54:18;3.58;;;1.17;;
39890;SDS011;25564;53.312;9.790;2022-09-09T13:56:51;3.63;;;1.35;;
39890;SDS011;25564;53.312;9.790;2022-09-09T13:59:22;2.47;;;1.10;;
39890;SDS011;25564;53.312;9.790;2022-09-09T14:02:13;2.67;;;1.13;;
39890;SDS011;25564;53.312;9.790;2022-09-09T14:04:45;2.55;;;1.55;;
39890;SDS011;25564;53.312;9.790;2022-09-09T14:07:17;3.20;;;1.13;;
39890;SDS011;25564;53.312;9.790;2022-09-09T14:09:49;2.75;;;1.63;;
39890;SDS011;25564;53.312;9.790;2022-09-09T14:12:22;2.67;;;1.20;;
39890;SDS011;25564;53.312;9.790;2022-09-09T14:14:54;4.05;;;1.10;;
39890;SDS011;25564;53.312;9.790;2022-09-09T14:17:25;6.43;;;1.50;;
39890;SDS011;25564;53.312;9.790;2022-09-09T14:20:03;2.50;;;1.13;;
39890;SDS011;25564;53.312;9.790;2022-09-09T14:22:38;4.00;;;1.48;;
39890;SDS011;25564;53.312;9.790;2022-09-09T14:25:10;1.98;;;1.30;;
39890;SDS011;25564;53.312;9.790;2022-09-09T14:27:44;3.25;;;1.35;;
39890;SDS011;25564;53.312;9.790;2022-09-09T14:30:16;3.08;;;1.55;;
39890;SDS011;25564;53.312;9.790;2022-09-09T14:32:48;2.95;;;1.10;;
39890;SDS011;25564;53.312;9.790;2022-09-09T14:35:19;3.40;;;1.17;;
39890;SDS011;25564;53.312;9.790;2022-09-09T14:37:51;3.28;;;1.63;;
39890;SDS011;25564;53.312;9.790;2022-09-09T14:40:22;3.73;;;1.23;;
39890;SDS011;25564;53.312;9.790;2022-09-09T14:42:54;2.15;;;1.30;;
39890;SDS011;25564;53.312;9.790;2022-09-09T14:45:26;2.15;;;1.10;;
39890;SDS011;25564;53.312;9.790;2022-09-09T14:47:58;2.72;;;1.27;;
39890;SDS011;25564;53.312;9.790;2022-09-09T14:50:30;2.88;;;1.05;;
39890;SDS011;25564;53.312;9.790;2022-09-09T14:53:02;2.58;;;1.08;;
39890;SDS011;25564;53.312;9.790;2022-09-09T14:55:33;2.55;;;1.15;;
39890;SDS011;25564;53.312;9.790;2022-09-09T14:58:04;2.55;;;1.13;;
39890;SDS011;25564;53.312;9.790;2022-09-09T15:00:37;3.05;;;1.38;;
39890;SDS011;25564;53.312;9.790;2022-09-09T15:03:09;2.85;;;1.27;;
39890;SDS011;25564;53.312;9.790;2022-09-09T15:05:41;3.42;;;1.20;;
39890;SDS011;25564;53.312;9.790;2022-09-09T15:08:15;1.52;;;0.95;;
39890;SDS011;25564;53.312;9.790;2022-09-09T15:10:47;4.03;;;1.63;;
39890;SDS011;25564;53.312;9.790;2022-09-09T15:13:18;2.40;;;0.95;;
39890;SDS011;25564;53.312;9.790;2022-09-09T15:15:49;2.08;;;0.95;;
39890;SDS011;25564;53.312;9.790;2022-09-09T15:18:21;3.45;;;0.80;;
39890;SDS011;25564;53.312;9.790;2022-09-09T15:20:52;1.20;;;0.80;;
39890;SDS011;25564;53.312;9.790;2022-09-09T15:23:24;1.00;;;0.60;;
39890;SDS011;25564;53.312;9.790;2022-09-09T15:25:55;1.10;;;0.70;;
39890;SDS011;25564;53.312;9.790;2022-09-09T15:28:27;3.80;;;1.00;;
39890;SDS011;25564;53.312;9.790;2022-09-09T15:30:59;1.80;;;0.90;;
39890;SDS011;25564;53.312;9.790;2022-09-09T15:33:37;2.33;;;0.90;;
39890;SDS011;25564;53.312;9.790;2022-09-09T15:36:16;1.30;;;0.73;;
39890;SDS011;25564;53.312;9.790;2022-09-09T15:38:50;2.38;;;0.65;;
39890;SDS011;25564;53.312;9.790;2022-09-09T15:41:22;2.03;;;0.85;;
39890;SDS011;25564;53.312;9.790;2022-09-09T15:43:55;2.33;;;0.77;;
39890;SDS011;25564;53.312;9.790;2022-09-09T15:46:31;4.65;;;0.85;;
39890;SDS011;25564;53.312;9.790;2022-09-09T15:49:09;1.00;;;0.60;;
39890;SDS011;25564;53.312;9.790;2022-09-09T15:51:47;2.40;;;0.80;;
39890;SDS011;25564;53.312;9.790;2022-09-09T15:54:22;1.02;;;0.82;;
39890;SDS011;25564;53.312;9.790;2022-09-09T15:56:56;1.75;;;0.90;;
39890;SDS011;25564;53.312;9.790;2022-09-09T15:59:30;1.42;;;0.80;;
39890;SDS011;25564;53.312;9.790;2022-09-09T16:02:02;1.83;;;1.10;;
39890;SDS011;25564;53.312;9.790;2022-09-09T16:04:34;2.00;;;1.08;;
39890;SDS011;25564;53.312;9.790;2022-09-09T16:07:05;2.13;;;1.20;;
39890;SDS011;25564;53.312;9.790;2022-09-09T16:09:38;1.55;;;1.00;;
39890;SDS011;25564;53.312;9.790;2022-09-09T16:12:10;1.13;;;0.90;;
39890;SDS011;25564;53.312;9.790;2022-09-09T16:14:43;3.88;;;1.10;;
39890;SDS011;25564;53.312;9.790;2022-09-09T16:17:16;2.83;;;1.42;;
39890;SDS011;25564;53.312;9.790;2022-09-09T16:19:47;1.85;;;0.95;;
39890;SDS011;25564;53.312;9.790;2022-09-09T16:22:19;2.50;;;1.10;;
39890;SDS011;25564;53.312;9.790;2022-09-09T16:24:50;1.00;;;0.90;;
39890;SDS011;25564;53.312;9.790;2022-09-09T16:27:22;4.47;;;1.10;;
39890;SDS011;25564;53.312;9.790;2022-09-09T16:29:54;1.92;;;0.93;;
39890;SDS011;25564;53.312;9.790;2022-09-09T16:32:25;2.05;;;1.05;;
39890;SDS011;25564;53.312;9.790;2022-09-09T16:34:57;2.88;;;0.98;;
39890;SDS011;25564;53.312;9.790;2022-09-09T16:37:29;2.05;;;1.10;;
39890;SDS011;25564;53.312;9.790;2022-09-09T16:40:00;3.78;;;1.15;;
39890;SDS011;25564;53.312;9.790;2022-09-09T16:42:34;1.90;;;1.20;;
39890;SDS011;25564;53.312;9.790;2022-09-09T16:45:09;1.92;;;1.10;;
39890;SDS011;25564;53.312;9.790;2022-09-09T16:47:44;1.70;;;1.35;;
39890;SDS011;25564;53.312;9.790;2022-09-09T16:50:15;4.00;;;1.33;;
39890;SDS011;25564;53.312;9.790;2022-09-09T16:52:47;2.05;;;1.40;;
39890;SDS011;25564;53.312;9.790;2022-09-09T16:55:18;1.50;;;0.90;;
39890;SDS011;25564;53.312;9.790;2022-09-09T16:57:53;1.85;;;1.00;;
39890;SDS011;25564;53.312;9.790;2022-09-09T17:00:25;14.43;;;1.85;;
39890;SDS011;25564;53.312;9.790;2022-09-09T17:02:58;2.35;;;1.20;;
39890;SDS011;25564;53.312;9.790;2022-09-09T17:05:29;1.95;;;1.10;;